Time;durP1;ratioP1;P1;durP2;ratioP2;P2;SDS_P1;SDS_P2;PMS_P1;PMS_P2;Temp;Humidity;BMP_temperature;BMP_pressure;BME280_temperature;BME280_humidity;BME280_pressure;Samples;Min_cycle;Max_cycle;Signal;HPM_P1;HPM_P2
2022/08/09 00:01:03;;;;;;;17.10;8.47;;;;;;;;;;5035092;28;20038;-65
2022/08/09 00:03:28;;;;;;;14.93;8.20;;;;;;;;;;5044781;28;20021;-65
2022/08/09 00:05:54;;;;;;;15.33;8.73;;;;;;;;;;5032752;28;20052;-65
2022/08/09 00:08:19;;;;;;;17.73;8.60;;;;;;;;;;5031359;28;20835;-66
2022/08/09 00:10:44;;;;;;;18.47;8.87;;;;;;;;;;5034006;28;20022;-66
2022/08/09 00:13:09;;;;;;;18.00;9.30;;;;;;;;;;5033694;28;20021;-65
2022/08/09 00:15:35;;;;;;;20.83;9.67;;;;;;;;;;5033663;28;20381;-65
2022/08/09 00:18:00;;;;;;;19.53;9.43;;;;;;;;;;5033473;28;20028;-66
2022/08/09 00:20:26;;;;;;;21.37;9.97;;;;;;;;;;5033205;28;20080;-66
2022/08/09 00:22:51;;;;;;;21.63;10.30;;;;;;;;;;5033541;28;20037;-66
2022/08/09 00:25:16;;;;;;;21.67;10.43;;;;;;;;;;5032533;28;20022;-65
2022/08/09 00:27:41;;;;;;;23.83;10.67;;;;;;;;;;5033817;28;20029;-65
2022/08/09 00:30:07;;;;;;;22.23;10.93;;;;;;;;;;5033609;28;20079;-65
2022/08/09 00:32:32;;;;;;;22.27;10.63;;;;;;;;;;5031372;28;20481;-65
2022/08/09 00:34:57;;;;;;;22.40;10.93;;;;;;;;;;5037316;28;20039;-65
2022/08/09 00:37:22;;;;;;;24.20;10.60;;;;;;;;;;5033914;28;20075;-65
2022/08/09 00:39:48;;;;;;;26.23;11.67;;;;;;;;;;5034411;28;20032;-65
2022/08/09 00:42:13;;;;;;;23.90;11.10;;;;;;;;;;5035470;28;20362;-65
2022/08/09 00:44:39;;;;;;;21.73;11.20;;;;;;;;;;5032751;28;20108;-65
2022/08/09 00:47:04;;;;;;;20.87;10.47;;;;;;;;;;5036064;28;20022;-65
2022/08/09 00:49:30;;;;;;;27.23;10.70;;;;;;;;;;5033331;28;20021;-65
2022/08/09 00:51:56;;;;;;;24.27;10.37;;;;;;;;;;5031761;28;20041;-65
2022/08/09 00:54:21;;;;;;;26.00;11.23;;;;;;;;;;5033267;28;20053;-65
2022/08/09 00:56:47;;;;;;;24.73;10.37;;;;;;;;;;5033659;28;20040;-65
2022/08/09 00:59:12;;;;;;;22.70;10.40;;;;;;;;;;5029223;28;20040;-65
2022/08/09 01:01:39;;;;;;;21.67;9.90;;;;;;;;;;5031697;28;20035;-65
2022/08/09 01:04:19;;;;;;;22.07;10.30;;;;;;;;;;5036166;28;20068;-65
2022/08/09 01:06:44;;;;;;;22.60;10.73;;;;;;;;;;5014133;28;20026;-65
2022/08/09 01:09:13;;;;;;;19.13;9.87;;;;;;;;;;5027704;28;20037;-65
2022/08/09 01:11:45;;;;;;;18.00;9.03;;;;;;;;;;5032910;28;20112;-65
2022/08/09 01:14:24;;;;;;;18.77;9.10;;;;;;;;;;5031153;28;20500;-65
2022/08/09 01:16:52;;;;;;;17.00;8.80;;;;;;;;;;5033148;28;20025;-65
2022/08/09 01:19:37;;;;;;;16.23;8.47;;;;;;;;;;5032970;28;20116;-65
2022/08/09 01:22:21;;;;;;;21.07;10.17;;;;;;;;;;5032483;28;20033;-65
2022/08/09 01:24:52;;;;;;;19.73;10.07;;;;;;;;;;5031900;28;20474;-65
2022/08/09 01:27:19;;;;;;;20.67;9.90;;;;;;;;;;5032240;28;20417;-65
2022/08/09 01:29:44;;;;;;;19.83;9.33;;;;;;;;;;5030024;28;20071;-65
2022/08/09 01:32:11;;;;;;;19.40;9.00;;;;;;;;;;5032002;28;20029;-65
2022/08/09 01:34:38;;;;;;;19.67;9.77;;;;;;;;;;5035237;28;20112;-65
2022/08/09 01:37:05;;;;;;;18.00;9.30;;;;;;;;;;5033430;28;20067;-65
2022/08/09 01:39:34;;;;;;;18.13;8.40;;;;;;;;;;5032069;28;20119;-65
2022/08/09 01:42:00;;;;;;;17.57;9.20;;;;;;;;;;5032199;28;20029;-65
2022/08/09 01:44:26;;;;;;;15.37;8.30;;;;;;;;;;5032329;28;20041;-65
2022/08/09 01:46:51;;;;;;;17.93;9.20;;;;;;;;;;5030420;28;20021;-65
2022/08/09 01:49:18;;;;;;;20.97;8.80;;;;;;;;;;5032513;28;20017;-65
2022/08/09 01:51:46;;;;;;;20.67;8.60;;;;;;;;;;5019045;28;20482;-65
2022/08/09 01:54:13;;;;;;;17.67;8.50;;;;;;;;;;5026801;28;20034;-65
2022/08/09 01:56:39;;;;;;;18.27;8.97;;;;;;;;;;5032416;28;20036;-65
2022/08/09 01:59:06;;;;;;;23.70;9.40;;;;;;;;;;5027375;28;20477;-65
2022/08/09 02:01:32;;;;;;;19.87;8.87;;;;;;;;;;5032481;28;20024;-65
2022/08/09 02:03:58;;;;;;;21.83;9.23;;;;;;;;;;5030926;28;20033;-65
2022/08/09 02:09:10;;;;;;;19.67;9.27;;;;;;;;;;5032076;28;20025;-65
2022/08/09 02:11:35;;;;;;;18.17;9.23;;;;;;;;;;5030857;28;20029;-65
2022/08/09 02:14:02;;;;;;;18.57;9.20;;;;;;;;;;5031845;28;20030;-65
2022/08/09 02:16:32;;;;;;;17.20;9.20;;;;;;;;;;5032948;28;20029;-65
2022/08/09 02:18:57;;;;;;;19.23;9.50;;;;;;;;;;5027070;28;20053;-65
2022/08/09 02:21:23;;;;;;;18.90;9.10;;;;;;;;;;5033412;28;20111;-65
2022/08/09 02:23:52;;;;;;;19.20;9.13;;;;;;;;;;5032891;28;20032;-65
2022/08/09 02:26:18;;;;;;;18.10;8.90;;;;;;;;;;5031350;28;20021;-65
2022/08/09 02:28:46;;;;;;;19.53;8.17;;;;;;;;;;5030372;28;20441;-65
2022/08/09 02:31:16;;;;;;;16.03;9.20;;;;;;;;;;5030547;28;20025;-66
2022/08/09 02:33:43;;;;;;;19.50;9.47;;;;;;;;;;5030607;28;20037;-65
2022/08/09 02:36:11;;;;;;;17.37;9.10;;;;;;;;;;5029818;28;20445;-65
2022/08/09 02:38:45;;;;;;;16.77;8.67;;;;;;;;;;5028627;28;20075;-65
2022/08/09 02:41:13;;;;;;;20.33;9.50;;;;;;;;;;5022590;28;20120;-65
2022/08/09 02:43:40;;;;;;;19.63;9.53;;;;;;;;;;5032157;28;20133;-65
2022/08/09 02:46:06;;;;;;;15.47;8.87;;;;;;;;;;5034579;28;20097;-65
2022/08/09 02:48:33;;;;;;;17.07;9.80;;;;;;;;;;5028782;28;20092;-65
2022/08/09 02:50:59;;;;;;;14.53;8.33;;;;;;;;;;5031281;28;20013;-65
2022/08/09 02:53:26;;;;;;;17.23;8.67;;;;;;;;;;5030861;28;20112;-65
2022/08/09 02:55:53;;;;;;;19.43;8.93;;;;;;;;;;5029769;28;20021;-65
2022/08/09 02:58:19;;;;;;;21.33;9.07;;;;;;;;;;5031525;28;20494;-65
2022/08/09 03:00:45;;;;;;;17.40;9.17;;;;;;;;;;5028995;28;20104;-65
2022/08/09 03:03:11;;;;;;;20.67;9.53;;;;;;;;;;5030600;28;20021;-65
2022/08/09 03:05:38;;;;;;;20.43;9.47;;;;;;;;;;5029482;28;20018;-65
2022/08/09 03:08:04;;;;;;;23.10;10.53;;;;;;;;;;5030598;28;20378;-65
2022/08/09 03:10:30;;;;;;;20.97;9.73;;;;;;;;;;5032368;28;20022;-66
2022/08/09 03:12:56;;;;;;;20.10;10.30;;;;;;;;;;5035635;28;20021;-65
2022/08/09 03:15:23;;;;;;;21.70;10.40;;;;;;;;;;5034253;28;20120;-65
2022/08/09 03:17:48;;;;;;;21.17;9.87;;;;;;;;;;5034642;28;20060;-65
2022/08/09 03:20:14;;;;;;;20.10;9.80;;;;;;;;;;5032000;28;20045;-65
2022/08/09 03:22:43;;;;;;;21.70;10.00;;;;;;;;;;5034679;28;20021;-65
2022/08/09 03:25:08;;;;;;;24.07;10.93;;;;;;;;;;5033648;28;20041;-66
2022/08/09 03:27:34;;;;;;;20.70;10.30;;;;;;;;;;5034022;28;20040;-65
2022/08/09 03:30:00;;;;;;;21.17;10.07;;;;;;;;;;5039514;28;20034;-65
2022/08/09 03:32:26;;;;;;;21.23;10.33;;;;;;;;;;5037425;28;20075;-65
2022/08/09 03:34:51;;;;;;;22.90;10.57;;;;;;;;;;5033953;28;20112;-65
2022/08/09 03:37:17;;;;;;;20.07;10.43;;;;;;;;;;5037695;28;20435;-65
2022/08/09 03:39:44;;;;;;;22.67;10.67;;;;;;;;;;5039426;28;20044;-65
2022/08/09 03:42:09;;;;;;;30.47;11.97;;;;;;;;;;5038684;28;20104;-65
2022/08/09 03:44:34;;;;;;;25.30;11.00;;;;;;;;;;5036273;28;20486;-65
2022/08/09 03:46:59;;;;;;;18.70;10.27;;;;;;;;;;5033903;28;20037;-65
2022/08/09 03:49:26;;;;;;;22.03;10.80;;;;;;;;;;5034105;28;20025;-65
2022/08/09 03:51:55;;;;;;;24.63;11.17;;;;;;;;;;5036598;28;20392;-65
2022/08/09 03:54:20;;;;;;;23.63;10.30;;;;;;;;;;5031415;28;20037;-65
2022/08/09 03:56:45;;;;;;;23.70;10.57;;;;;;;;;;5034364;28;20261;-65
2022/08/09 03:59:11;;;;;;;19.77;10.00;;;;;;;;;;5032102;28;20041;-65
2022/08/09 04:01:38;;;;;;;19.83;10.17;;;;;;;;;;5035072;28;20045;-65
2022/08/09 04:04:04;;;;;;;26.27;10.47;;;;;;;;;;5033523;28;20025;-65
2022/08/09 04:06:29;;;;;;;19.50;10.37;;;;;;;;;;5034681;28;20068;-65
2022/08/09 04:08:54;;;;;;;21.13;10.37;;;;;;;;;;5031575;28;20060;-65
2022/08/09 04:11:20;;;;;;;18.30;10.40;;;;;;;;;;5034339;28;20537;-65
2022/08/09 04:13:45;;;;;;;21.63;9.97;;;;;;;;;;5031312;28;20040;-65
2022/08/09 04:16:10;;;;;;;19.73;9.87;;;;;;;;;;5038886;28;20486;-65
2022/08/09 04:18:35;;;;;;;18.23;9.63;;;;;;;;;;5031844;28;20577;-65
2022/08/09 04:21:01;;;;;;;19.80;9.53;;;;;;;;;;5032233;28;20064;-66
2022/08/09 04:23:26;;;;;;;17.33;9.10;;;;;;;;;;5037055;28;20029;-65
2022/08/09 04:25:53;;;;;;;15.90;8.73;;;;;;;;;;5031380;28;20029;-65
2022/08/09 04:28:20;;;;;;;14.57;8.33;;;;;;;;;;5030209;28;20025;-65
2022/08/09 04:30:45;;;;;;;14.90;7.93;;;;;;;;;;5036952;28;20170;-65
2022/08/09 04:33:10;;;;;;;15.77;7.70;;;;;;;;;;5030998;28;20112;-65
2022/08/09 04:35:38;;;;;;;14.37;7.80;;;;;;;;;;5031275;28;20497;-65
2022/08/09 04:38:04;;;;;;;18.03;7.60;;;;;;;;;;5033245;28;20027;-65
2022/08/09 04:40:47;;;;;;;12.30;7.10;;;;;;;;;;5033003;28;20025;-66
2022/08/09 04:43:12;;;;;;;14.20;5.97;;;;;;;;;;5031636;28;20086;-66
2022/08/09 04:45:38;;;;;;;9.37;5.37;;;;;;;;;;5035863;28;20103;-66
2022/08/09 04:48:03;;;;;;;9.27;4.60;;;;;;;;;;5030487;28;20432;-66
2022/08/09 04:50:29;;;;;;;11.68;4.47;;;;;;;;;;5026248;28;20161;-66
2022/08/09 04:52:54;;;;;;;10.47;3.93;;;;;;;;;;5032162;28;20041;-66
2022/08/09 04:55:19;;;;;;;10.43;3.70;;;;;;;;;;5034228;28;20037;-66
2022/08/09 04:57:44;;;;;;;7.82;4.00;;;;;;;;;;5033009;28;20029;-66
2022/08/09 05:00:10;;;;;;;8.07;4.25;;;;;;;;;;5031001;28;20425;-65
2022/08/09 05:02:35;;;;;;;6.28;3.35;;;;;;;;;;5044641;28;20026;-66
2022/08/09 05:05:00;;;;;;;8.43;3.08;;;;;;;;;;5033133;28;20417;-66
2022/08/09 05:07:25;;;;;;;7.32;3.10;;;;;;;;;;5032606;28;20474;-66
2022/08/09 05:09:51;;;;;;;8.02;3.53;;;;;;;;;;5031409;28;20520;-66
2022/08/09 05:12:16;;;;;;;8.95;3.30;;;;;;;;;;5035101;28;20020;-66
2022/08/09 05:14:41;;;;;;;9.40;3.20;;;;;;;;;;5032838;28;20037;-66
2022/08/09 05:17:07;;;;;;;7.55;3.05;;;;;;;;;;5032807;28;20436;-66
2022/08/09 05:19:32;;;;;;;5.60;2.90;;;;;;;;;;5032762;28;20029;-66
2022/08/09 05:21:57;;;;;;;7.30;3.08;;;;;;;;;;5033036;28;20025;-66
2022/08/09 05:24:23;;;;;;;7.78;2.70;;;;;;;;;;5032308;28;20120;-66
2022/08/09 05:26:48;;;;;;;7.38;2.70;;;;;;;;;;5032154;28;20028;-66
2022/08/09 05:29:18;;;;;;;7.43;2.70;;;;;;;;;;5035959;28;20021;-65
2022/08/09 05:31:44;;;;;;;9.75;3.38;;;;;;;;;;5037093;28;20028;-66
2022/08/09 05:34:09;;;;;;;7.03;2.65;;;;;;;;;;5033047;28;20021;-66
2022/08/09 05:36:34;;;;;;;5.70;2.55;;;;;;;;;;5032495;28;20033;-65
2022/08/09 05:39:00;;;;;;;6.32;2.67;;;;;;;;;;5032430;28;20033;-65
2022/08/09 05:41:25;;;;;;;10.13;2.67;;;;;;;;;;5032546;28;20022;-66
2022/08/09 05:43:50;;;;;;;6.88;2.70;;;;;;;;;;5029307;28;20032;-66
2022/08/09 05:46:15;;;;;;;4.85;2.03;;;;;;;;;;5032949;28;20083;-66
2022/08/09 05:48:41;;;;;;;6.82;2.10;;;;;;;;;;5029999;28;20462;-66
2022/08/09 05:51:06;;;;;;;8.80;2.40;;;;;;;;;;5026054;28;20553;-65
2022/08/09 05:53:31;;;;;;;4.70;2.17;;;;;;;;;;5032061;28;20121;-66
2022/08/09 05:55:56;;;;;;;8.15;2.47;;;;;;;;;;5031719;28;20104;-66
2022/08/09 05:58:21;;;;;;;7.13;2.50;;;;;;;;;;5030314;28;20061;-65
2022/08/09 06:00:47;;;;;;;5.63;2.80;;;;;;;;;;5033726;28;20025;-66
2022/08/09 06:03:12;;;;;;;5.60;2.80;;;;;;;;;;5032009;28;20440;-65
2022/08/09 06:05:37;;;;;;;5.20;2.65;;;;;;;;;;5032035;28;20018;-66
2022/08/09 06:08:02;;;;;;;6.38;2.33;;;;;;;;;;5032418;28;20465;-66
2022/08/09 06:10:37;;;;;;;5.68;2.55;;;;;;;;;;5031727;28;20163;-66
2022/08/09 06:13:03;;;;;;;5.13;2.40;;;;;;;;;;5032195;28;20021;-66
2022/08/09 06:15:29;;;;;;;4.43;2.30;;;;;;;;;;5031604;28;20021;-65
2022/08/09 06:17:54;;;;;;;5.50;2.35;;;;;;;;;;5032117;28;20017;-66
2022/08/09 06:20:19;;;;;;;8.43;2.45;;;;;;;;;;5031561;28;20017;-66
2022/08/09 06:22:44;;;;;;;5.85;2.30;;;;;;;;;;5031661;28;20132;-65
2022/08/09 06:25:09;;;;;;;4.32;1.80;;;;;;;;;;5031323;28;20105;-66
2022/08/09 06:27:35;;;;;;;7.38;1.80;;;;;;;;;;5031981;28;20025;-66
2022/08/09 06:30:01;;;;;;;5.05;2.10;;;;;;;;;;5031633;28;20480;-65
2022/08/09 06:32:26;;;;;;;6.63;1.70;;;;;;;;;;5031931;28;20512;-66
2022/08/09 06:34:51;;;;;;;9.82;2.22;;;;;;;;;;5031525;28;20028;-66
2022/08/09 06:37:16;;;;;;;7.00;2.10;;;;;;;;;;5031920;28;20489;-66
2022/08/09 06:39:41;;;;;;;7.45;2.00;;;;;;;;;;5031118;28;20036;-66
2022/08/09 06:42:07;;;;;;;9.13;2.10;;;;;;;;;;5031755;28;20017;-66
2022/08/09 06:44:32;;;;;;;5.50;1.80;;;;;;;;;;5030298;28;20055;-65
2022/08/09 06:46:57;;;;;;;5.28;1.83;;;;;;;;;;5031520;28;20355;-66
2022/08/09 06:49:23;;;;;;;7.13;1.85;;;;;;;;;;5030959;28;20466;-66
2022/08/09 06:51:48;;;;;;;6.13;1.80;;;;;;;;;;5031061;28;20041;-66
2022/08/09 06:54:13;;;;;;;5.53;1.67;;;;;;;;;;5031253;28;20080;-66
2022/08/09 06:56:38;;;;;;;3.45;1.50;;;;;;;;;;5031328;28;20026;-66
2022/08/09 06:59:04;;;;;;;4.05;1.40;;;;;;;;;;5029696;28;20029;-66
2022/08/09 07:01:29;;;;;;;3.85;1.20;;;;;;;;;;5031105;28;20044;-66
2022/08/09 07:03:54;;;;;;;4.43;1.33;;;;;;;;;;5031044;28;20450;-66
2022/08/09 07:06:19;;;;;;;3.17;1.30;;;;;;;;;;5031257;28;20624;-66
2022/08/09 07:08:45;;;;;;;3.53;1.27;;;;;;;;;;5031267;28;20462;-66
2022/08/09 07:11:10;;;;;;;4.45;1.42;;;;;;;;;;5031402;28;20028;-66
2022/08/09 07:13:35;;;;;;;5.38;1.25;;;;;;;;;;5031157;28;20096;-66
2022/08/09 07:16:00;;;;;;;17.25;1.85;;;;;;;;;;5030887;28;20028;-66
2022/08/09 07:18:26;;;;;;;14.38;2.72;;;;;;;;;;5030950;28;20033;-65
2022/08/09 07:20:51;;;;;;;2.90;1.00;;;;;;;;;;5030711;28;20179;-66
2022/08/09 07:23:16;;;;;;;5.43;1.73;;;;;;;;;;5031093;28;20022;-66
2022/08/09 07:25:42;;;;;;;17.88;2.25;;;;;;;;;;5030915;28;20041;-66
2022/08/09 07:28:08;;;;;;;10.93;1.40;;;;;;;;;;5030978;28;20055;-66
2022/08/09 07:30:33;;;;;;;8.88;1.50;;;;;;;;;;5030665;28;20030;-66
2022/08/09 07:32:58;;;;;;;6.20;1.15;;;;;;;;;;5031020;28;20026;-66
2022/08/09 07:35:24;;;;;;;4.40;1.20;;;;;;;;;;5030543;28;20018;-66
2022/08/09 07:37:49;;;;;;;3.95;0.98;;;;;;;;;;5030839;28;20028;-65
2022/08/09 07:40:15;;;;;;;4.40;0.90;;;;;;;;;;5030480;28;20032;-64
2022/08/09 07:42:47;;;;;;;2.35;0.90;;;;;;;;;;5030783;28;20024;-64
2022/08/09 07:45:13;;;;;;;3.78;0.90;;;;;;;;;;5030278;28;20056;-64
2022/08/09 07:47:38;;;;;;;4.88;0.95;;;;;;;;;;5030850;28;20067;-64
2022/08/09 07:50:03;;;;;;;4.43;0.90;;;;;;;;;;5030699;28;20434;-64
2022/08/09 07:52:28;;;;;;;3.45;0.90;;;;;;;;;;5030746;28;20494;-64
2022/08/09 07:54:54;;;;;;;5.40;0.98;;;;;;;;;;5030766;28;20026;-64
2022/08/09 07:57:19;;;;;;;11.23;1.60;;;;;;;;;;5034185;28;20028;-64
2022/08/09 07:59:45;;;;;;;16.63;2.20;;;;;;;;;;5034276;28;20029;-64
2022/08/09 08:02:10;;;;;;;10.10;1.70;;;;;;;;;;5034489;28;20521;-64
2022/08/09 08:04:35;;;;;;;2.80;0.80;;;;;;;;;;5034076;28;20386;-64
2022/08/09 08:07:03;;;;;;;2.50;0.90;;;;;;;;;;5032955;28;20466;-64
2022/08/09 08:09:28;;;;;;;6.07;1.00;;;;;;;;;;5034061;28;20018;-64
2022/08/09 08:11:53;;;;;;;5.83;1.13;;;;;;;;;;5034087;28;20071;-64
2022/08/09 08:14:18;;;;;;;6.72;0.93;;;;;;;;;;5034071;28;20339;-63
2022/08/09 08:16:43;;;;;;;3.60;0.82;;;;;;;;;;5034117;28;20103;-63
2022/08/09 08:19:09;;;;;;;7.90;1.20;;;;;;;;;;5033636;28;20084;-64
2022/08/09 08:21:34;;;;;;;5.55;1.00;;;;;;;;;;5034371;28;20033;-64
2022/08/09 08:24:00;;;;;;;1.98;0.80;;;;;;;;;;5033665;28;20049;-64
2022/08/09 08:26:25;;;;;;;5.10;0.80;;;;;;;;;;5034008;28;20045;-63
2022/08/09 08:28:50;;;;;;;5.10;1.20;;;;;;;;;;5033545;28;20108;-64
2022/08/09 08:31:15;;;;;;;2.47;0.80;;;;;;;;;;5034220;28;20067;-64
2022/08/09 08:33:41;;;;;;;2.95;0.90;;;;;;;;;;5033824;28;20462;-63
2022/08/09 08:36:06;;;;;;;3.42;0.88;;;;;;;;;;5033191;28;20033;-66
2022/08/09 08:38:31;;;;;;;5.13;1.10;;;;;;;;;;5033736;28;20028;-64
2022/08/09 08:40:57;;;;;;;4.22;1.05;;;;;;;;;;5033371;28;20057;-64
2022/08/09 08:43:23;;;;;;;2.45;0.80;;;;;;;;;;5032928;28;20026;-64
2022/08/09 08:45:49;;;;;;;5.10;1.00;;;;;;;;;;5033471;28;20022;-65
2022/08/09 08:48:15;;;;;;;2.97;0.88;;;;;;;;;;5033415;28;20013;-64
2022/08/09 08:50:40;;;;;;;9.30;1.50;;;;;;;;;;5033282;28;20028;-64
2022/08/09 08:53:05;;;;;;;8.07;1.10;;;;;;;;;;5033348;28;20041;-65
2022/08/09 08:55:31;;;;;;;63.35;6.75;;;;;;;;;;5032991;28;20014;-64
2022/08/09 08:57:56;;;;;;;6.88;1.08;;;;;;;;;;5033449;28;20100;-64
2022/08/09 09:00:21;;;;;;;6.28;1.20;;;;;;;;;;5033067;28;20021;-64
2022/08/09 09:02:50;;;;;;;3.15;0.90;;;;;;;;;;5033642;28;20030;-64
2022/08/09 09:05:22;;;;;;;4.43;1.02;;;;;;;;;;5032796;28;20017;-65
2022/08/09 09:07:51;;;;;;;3.35;1.00;;;;;;;;;;5032360;28;20053;-65
2022/08/09 09:10:16;;;;;;;3.15;0.95;;;;;;;;;;5032698;28;20466;-64
2022/08/09 09:12:43;;;;;;;4.85;0.98;;;;;;;;;;5033387;28;20021;-65
2022/08/09 09:15:08;;;;;;;3.80;0.80;;;;;;;;;;5032525;28;20022;-65
2022/08/09 09:17:34;;;;;;;3.03;1.10;;;;;;;;;;5033246;28;20047;-65
2022/08/09 09:20:00;;;;;;;2.83;0.90;;;;;;;;;;5032689;28;20043;-64
2022/08/09 09:22:25;;;;;;;3.33;1.08;;;;;;;;;;5033160;28;20030;-65
2022/08/09 09:24:51;;;;;;;3.35;0.98;;;;;;;;;;5032526;28;20025;-65
2022/08/09 09:27:21;;;;;;;4.82;1.33;;;;;;;;;;5032989;28;20536;-64
2022/08/09 09:29:46;;;;;;;3.60;0.90;;;;;;;;;;5032576;28;20482;-64
2022/08/09 09:32:17;;;;;;;3.08;1.00;;;;;;;;;;5032763;28;20056;-64
2022/08/09 09:34:43;;;;;;;;;;;;;;;;;;5033184;28;20504;-64
2022/08/09 09:37:09;;;;;;;4.43;1.13;;;;;;;;;;5032657;28;19909;-64
2022/08/09 09:39:34;;;;;;;3.90;1.08;;;;;;;;;;5032303;28;20032;-64
2022/08/09 09:42:02;;;;;;;4.50;0.95;;;;;;;;;;5032687;28;20509;-64
2022/08/09 09:44:32;;;;;;;3.58;0.95;;;;;;;;;;5032531;28;20009;-64
2022/08/09 09:47:08;;;;;;;3.13;0.80;;;;;;;;;;5032875;28;20037;-64
2022/08/09 09:49:33;;;;;;;2.83;0.80;;;;;;;;;;5032158;28;20097;-65
2022/08/09 09:52:03;;;;;;;3.05;1.17;;;;;;;;;;5032273;28;20451;-65
2022/08/09 09:54:29;;;;;;;;;;;;;;;;;;5032310;28;20025;-65
2022/08/09 09:56:55;;;;;;;5.07;1.02;;;;;;;;;;5032249;28;19905;-65
2022/08/09 09:59:31;;;;;;;4.30;0.90;;;;;;;;;;5031990;28;20029;-64
2022/08/09 10:02:00;;;;;;;4.95;0.95;;;;;;;;;;5032025;28;20029;-65
2022/08/09 10:04:25;;;;;;;3.55;0.90;;;;;;;;;;5031988;28;20478;-65
2022/08/09 10:06:51;;;;;;;2.40;0.68;;;;;;;;;;5032403;28;20020;-65
2022/08/09 10:09:16;;;;;;;2.73;0.77;;;;;;;;;;5031968;28;20022;-65
2022/08/09 10:11:41;;;;;;;3.38;0.90;;;;;;;;;;5032364;28;20352;-65
2022/08/09 10:14:23;;;;;;;3.67;0.82;;;;;;;;;;5032006;28;20084;-65
2022/08/09 10:16:48;;;;;;;3.35;0.90;;;;;;;;;;5032328;28;20041;-65
2022/08/09 10:19:14;;;;;;;5.13;1.00;;;;;;;;;;5030931;28;20107;-65
2022/08/09 10:21:49;;;;;;;2.97;0.90;;;;;;;;;;5032378;28;20264;-65
2022/08/09 10:24:18;;;;;;;3.17;0.82;;;;;;;;;;5031736;28;20049;-65
2022/08/09 10:26:47;;;;;;;4.35;1.20;;;;;;;;;;5032054;28;20020;-65
2022/08/09 10:29:13;;;;;;;3.78;0.90;;;;;;;;;;5031699;28;20043;-65
2022/08/09 10:31:38;;;;;;;2.83;0.77;;;;;;;;;;5031551;28;20021;-65
2022/08/09 10:34:04;;;;;;;2.05;0.60;;;;;;;;;;5030930;28;20125;-65
2022/08/09 10:36:30;;;;;;;4.40;0.57;;;;;;;;;;5031767;28;20057;-65
2022/08/09 10:38:55;;;;;;;8.18;0.90;;;;;;;;;;5031642;28;20029;-65
2022/08/09 10:41:20;;;;;;;8.20;1.10;;;;;;;;;;5031695;28;20124;-65
2022/08/09 10:43:47;;;;;;;2.83;0.70;;;;;;;;;;5030944;28;20026;-65
2022/08/09 10:46:20;;;;;;;5.13;0.80;;;;;;;;;;5031507;28;20041;-65
2022/08/09 10:48:54;;;;;;;3.67;0.88;;;;;;;;;;5031041;28;20041;-65
2022/08/09 10:51:42;;;;;;;3.30;0.85;;;;;;;;;;5031535;28;20056;-65
2022/08/09 10:54:09;;;;;;;4.07;0.80;;;;;;;;;;5030949;28;20116;-65
2022/08/09 10:56:38;;;;;;;3.78;0.90;;;;;;;;;;5031063;28;20025;-66
2022/08/09 10:59:24;;;;;;;4.07;0.80;;;;;;;;;;5031069;28;20037;-65
2022/08/09 11:01:49;;;;;;;2.78;0.90;;;;;;;;;;5019630;28;20100;-65
2022/08/09 11:04:22;;;;;;;3.35;0.90;;;;;;;;;;5030576;28;20024;-65
2022/08/09 11:07:07;;;;;;;6.30;0.93;;;;;;;;;;5030943;28;20105;-65
2022/08/09 11:09:42;;;;;;;6.35;1.00;;;;;;;;;;5030080;28;20049;-66
2022/08/09 11:12:16;;;;;;;4.35;0.80;;;;;;;;;;5031294;28;20047;-65
2022/08/09 11:14:43;;;;;;;5.32;1.10;;;;;;;;;;5031205;28;20478;-65
2022/08/09 11:17:11;;;;;;;3.38;0.80;;;;;;;;;;5031354;28;20087;-65
2022/08/09 11:19:48;;;;;;;2.55;0.80;;;;;;;;;;5030951;28;20509;-65
2022/08/09 11:22:14;;;;;;;7.18;0.90;;;;;;;;;;5031014;28;20048;-65
2022/08/09 11:24:58;;;;;;;2.67;0.90;;;;;;;;;;5030909;28;20108;-65
2022/08/09 11:27:33;;;;;;;2.25;0.80;;;;;;;;;;5030910;28;20104;-65
2022/08/09 11:29:58;;;;;;;4.65;1.15;;;;;;;;;;5030715;28;20033;-65
2022/08/09 11:32:39;;;;;;;2.78;0.90;;;;;;;;;;5034810;28;20021;-65
2022/08/09 11:35:11;;;;;;;2.95;0.75;;;;;;;;;;5034530;28;20079;-65
2022/08/09 11:37:38;;;;;;;3.92;0.90;;;;;;;;;;5035282;28;20025;-65
2022/08/09 11:40:05;;;;;;;2.45;0.70;;;;;;;;;;5034727;28;20034;-65
2022/08/09 11:42:46;;;;;;;5.00;0.85;;;;;;;;;;5034783;28;20031;-65
2022/08/09 11:45:22;;;;;;;5.00;1.00;;;;;;;;;;5034242;28;20025;-65
2022/08/09 11:47:50;;;;;;;3.92;1.00;;;;;;;;;;5034651;28;20075;-65
2022/08/09 11:50:15;;;;;;;3.47;0.70;;;;;;;;;;5034607;28;20048;-65
2022/08/09 11:52:58;;;;;;;7.78;0.95;;;;;;;;;;5034679;28;20033;-65
2022/08/09 11:55:30;;;;;;;2.45;0.93;;;;;;;;;;5034411;28;20108;-66
2022/08/09 11:57:56;;;;;;;4.03;1.20;;;;;;;;;;5034928;28;20025;-65
2022/08/09 12:00:22;;;;;;;2.03;0.90;;;;;;;;;;5034361;28;20104;-65
2022/08/09 12:02:47;;;;;;;4.43;1.15;;;;;;;;;;5034469;28;20450;-65
2022/08/09 12:05:12;;;;;;;2.97;1.00;;;;;;;;;;5034230;28;20029;-65
2022/08/09 12:07:38;;;;;;;3.35;1.08;;;;;;;;;;5034741;28;20052;-65
2022/08/09 12:10:03;;;;;;;3.03;1.02;;;;;;;;;;5034269;28;20386;-65
2022/08/09 12:12:42;;;;;;;4.43;0.80;;;;;;;;;;5034114;28;20559;-65
2022/08/09 12:15:23;;;;;;;2.97;0.80;;;;;;;;;;5033910;28;20022;-65
2022/08/09 12:17:49;;;;;;;3.80;0.80;;;;;;;;;;5034234;28;20060;-65
2022/08/09 12:20:17;;;;;;;4.45;0.80;;;;;;;;;;5033889;28;20041;-65
2022/08/09 12:22:43;;;;;;;2.65;0.80;;;;;;;;;;5034191;28;20482;-65
2022/08/09 12:25:11;;;;;;;3.58;1.15;;;;;;;;;;5033540;28;20028;-65
2022/08/09 12:27:36;;;;;;;3.92;0.90;;;;;;;;;;5034034;28;20029;-65
2022/08/09 12:30:02;;;;;;;3.13;0.70;;;;;;;;;;5033586;28;20053;-65
2022/08/09 12:32:27;;;;;;;2.22;0.68;;;;;;;;;;5034174;28;20429;-65
2022/08/09 12:34:58;;;;;;;2.33;0.80;;;;;;;;;;5033918;28;20026;-65
2022/08/09 12:37:29;;;;;;;2.63;0.80;;;;;;;;;;5033325;28;20048;-65
2022/08/09 12:40:09;;;;;;;2.97;0.80;;;;;;;;;;5032705;28;20025;-65
2022/08/09 12:42:34;;;;;;;2.10;0.70;;;;;;;;;;5032776;28;20033;-65
2022/08/09 12:45:00;;;;;;;2.47;0.80;;;;;;;;;;5033531;28;20033;-65
2022/08/09 12:47:26;;;;;;;2.03;0.80;;;;;;;;;;5033793;28;20706;-65
2022/08/09 12:52:36;;;;;;;1.83;0.70;;;;;;;;;;5033468;28;20099;-65
2022/08/09 12:55:02;;;;;;;4.80;0.70;;;;;;;;;;5033314;28;20500;-65
2022/08/09 12:57:44;;;;;;;1.77;0.77;;;;;;;;;;5033450;28;20033;-65
2022/08/09 13:00:16;;;;;;;3.40;0.82;;;;;;;;;;5033302;28;20057;-65
2022/08/09 13:02:49;;;;;;;2.40;0.68;;;;;;;;;;5033332;28;20026;-65
2022/08/09 13:05:14;;;;;;;32.17;23.85;;;;;;;;;;5032618;28;20386;-65
2022/08/09 13:07:40;;;;;;;5.20;2.63;;;;;;;;;;5033516;28;20029;-65
2022/08/09 13:10:05;;;;;;;3.60;1.45;;;;;;;;;;5032984;28;20038;-65
2022/08/09 13:12:30;;;;;;;3.30;0.80;;;;;;;;;;5033041;28;20025;-65
2022/08/09 13:15:04;;;;;;;3.00;0.70;;;;;;;;;;5032915;28;20040;-65
2022/08/09 13:17:29;;;;;;;2.38;0.60;;;;;;;;;;5033392;28;20018;-65
2022/08/09 13:19:57;;;;;;;2.63;0.90;;;;;;;;;;5032675;28;20477;-65
2022/08/09 13:22:24;;;;;;;4.18;0.73;;;;;;;;;;5033146;28;20065;-65
2022/08/09 13:24:52;;;;;;;3.17;0.70;;;;;;;;;;5032564;28;20029;-65
2022/08/09 13:27:23;;;;;;;5.55;0.75;;;;;;;;;;5033081;28;20016;-65
2022/08/09 13:29:52;;;;;;;2.10;0.73;;;;;;;;;;5032682;28;20033;-65
2022/08/09 13:32:17;;;;;;;4.57;0.80;;;;;;;;;;5032656;28;20025;-65
2022/08/09 13:34:43;;;;;;;2.47;0.68;;;;;;;;;;5032749;28;20029;-65
2022/08/09 13:37:08;;;;;;;1.95;0.70;;;;;;;;;;5032746;28;20665;-65
2022/08/09 13:39:35;;;;;;;2.42;0.60;;;;;;;;;;5032200;28;20499;-65
2022/08/09 13:42:01;;;;;;;3.42;0.88;;;;;;;;;;5032637;28;20028;-65
2022/08/09 13:44:27;;;;;;;4.18;0.90;;;;;;;;;;5032105;28;20025;-65
2022/08/09 13:46:52;;;;;;;4.65;0.88;;;;;;;;;;5031207;28;20024;-66
2022/08/09 13:49:17;;;;;;;3.10;0.65;;;;;;;;;;5032064;28;20075;-65
2022/08/09 13:51:42;;;;;;;5.30;0.80;;;;;;;;;;5032312;28;20034;-65
2022/08/09 13:54:08;;;;;;;2.45;0.70;;;;;;;;;;5032334;28;20025;-65
2022/08/09 13:56:33;;;;;;;5.60;0.80;;;;;;;;;;5032548;28;20776;-65
2022/08/09 13:58:58;;;;;;;3.30;0.85;;;;;;;;;;5032124;28;20493;-65
2022/08/09 14:01:23;;;;;;;5.75;0.80;;;;;;;;;;5032073;28;20040;-65
2022/08/09 14:03:49;;;;;;;2.13;0.73;;;;;;;;;;5032250;28;20033;-66
2022/08/09 14:06:14;;;;;;;5.97;0.90;;;;;;;;;;5032357;28;20014;-65
2022/08/09 14:08:40;;;;;;;2.40;0.80;;;;;;;;;;5031845;28;20474;-65
2022/08/09 14:11:05;;;;;;;4.22;0.68;;;;;;;;;;5031770;28;20022;-65
2022/08/09 14:13:31;;;;;;;4.68;0.80;;;;;;;;;;5032030;28;20112;-65
2022/08/09 14:15:56;;;;;;;2.28;0.70;;;;;;;;;;5031594;28;20108;-65
2022/08/09 14:18:23;;;;;;;4.60;1.15;;;;;;;;;;5031852;28;20057;-67
2022/08/09 14:20:48;;;;;;;2.42;0.65;;;;;;;;;;5031628;28;20499;-65
2022/08/09 14:23:13;;;;;;;3.47;0.73;;;;;;;;;;5031934;28;20115;-65
2022/08/09 14:25:38;;;;;;;4.57;0.70;;;;;;;;;;5031584;28;20017;-65
2022/08/09 14:28:04;;;;;;;3.90;0.75;;;;;;;;;;5031101;28;20076;-65
2022/08/09 14:30:29;;;;;;;3.63;0.80;;;;;;;;;;5030816;28;20152;-65
2022/08/09 14:32:54;;;;;;;2.47;0.75;;;;;;;;;;5031770;28;20025;-65
2022/08/09 14:35:19;;;;;;;5.18;0.80;;;;;;;;;;5031200;28;20033;-65
2022/08/09 14:37:45;;;;;;;1.80;0.73;;;;;;;;;;5031469;28;20095;-65
2022/08/09 14:40:10;;;;;;;4.10;0.80;;;;;;;;;;5031257;28;20033;-65
2022/08/09 14:42:35;;;;;;;1.90;0.70;;;;;;;;;;5031448;28;20050;-65